sensor_id;sensor_type;location;lat;lon;timestamp;P1;durP1;ratioP1;P2;durP2;ratioP2
5682;SDS011;2864;49.220;8.654;2023-09-12T00:00:55;13.53;;;7.87;;
5682;SDS011;2864;49.220;8.654;2023-09-12T00:03:22;13.97;;;8.03;;
5682;SDS011;2864;49.220;8.654;2023-09-12T00:05:51;10.03;;;7.43;;
5682;SDS011;2864;49.220;8.654;2023-09-12T00:08:18;10.50;;;7.10;;
5682;SDS011;2864;49.220;8.654;2023-09-12T00:10:44;9.80;;;6.87;;
5682;SDS011;2864;49.220;8.654;2023-09-12T00:13:10;14.33;;;7.47;;
5682;SDS011;2864;49.220;8.654;2023-09-12T00:15:35;14.03;;;8.07;;
5682;SDS011;2864;49.220;8.654;2023-09-12T00:18:01;12.80;;;8.00;;
5682;SDS011;2864;49.220;8.654;2023-09-12T00:20:26;12.23;;;7.70;;
5682;SDS011;2864;49.220;8.654;2023-09-12T00:22:52;11.97;;;8.10;;
5682;SDS011;2864;49.220;8.654;2023-09-12T00:25:19;15.40;;;8.50;;
5682;SDS011;2864;49.220;8.654;2023-09-12T00:27:48;17.43;;;8.37;;
5682;SDS011;2864;49.220;8.654;2023-09-12T00:30:14;11.63;;;7.87;;
5682;SDS011;2864;49.220;8.654;2023-09-12T00:32:40;13.20;;;7.63;;
5682;SDS011;2864;49.220;8.654;2023-09-12T00:35:06;15.40;;;7.97;;
5682;SDS011;2864;49.220;8.654;2023-09-12T00:37:32;16.27;;;8.03;;
5682;SDS011;2864;49.220;8.654;2023-09-12T00:39:57;12.93;;;8.13;;
5682;SDS011;2864;49.220;8.654;2023-09-12T00:42:26;15.20;;;8.57;;
5682;SDS011;2864;49.220;8.654;2023-09-12T00:44:52;13.00;;;7.90;;
5682;SDS011;2864;49.220;8.654;2023-09-12T00:47:17;16.13;;;8.10;;
5682;SDS011;2864;49.220;8.654;2023-09-12T00:49:44;15.83;;;7.93;;
5682;SDS011;2864;49.220;8.654;2023-09-12T00:52:11;15.43;;;7.93;;
5682;SDS011;2864;49.220;8.654;2023-09-12T00:54:38;15.17;;;7.70;;
5682;SDS011;2864;49.220;8.654;2023-09-12T00:57:04;16.87;;;8.07;;
5682;SDS011;2864;49.220;8.654;2023-09-12T00:59:30;12.00;;;8.00;;
5682;SDS011;2864;49.220;8.654;2023-09-12T01:01:56;17.23;;;8.60;;
5682;SDS011;2864;49.220;8.654;2023-09-12T01:04:22;18.27;;;8.07;;
5682;SDS011;2864;49.220;8.654;2023-09-12T01:06:47;14.00;;;8.20;;
5682;SDS011;2864;49.220;8.654;2023-09-12T01:09:13;14.63;;;7.93;;
5682;SDS011;2864;49.220;8.654;2023-09-12T01:11:39;16.33;;;7.90;;
5682;SDS011;2864;49.220;8.654;2023-09-12T01:14:05;14.27;;;8.00;;
5682;SDS011;2864;49.220;8.654;2023-09-12T01:19:53;12.33;;;7.97;;
5682;SDS011;2864;49.220;8.654;2023-09-12T01:25:00;19.20;;;8.67;;
5682;SDS011;2864;49.220;8.654;2023-09-12T01:27:37;10.13;;;7.70;;
5682;SDS011;2864;49.220;8.654;2023-09-12T01:30:08;14.93;;;8.30;;
5682;SDS011;2864;49.220;8.654;2023-09-12T01:32:35;17.30;;;8.20;;
5682;SDS011;2864;49.220;8.654;2023-09-12T01:35:02;14.33;;;7.90;;
5682;SDS011;2864;49.220;8.654;2023-09-12T01:37:29;11.27;;;7.90;;
5682;SDS011;2864;49.220;8.654;2023-09-12T01:39:55;13.20;;;7.53;;
5682;SDS011;2864;49.220;8.654;2023-09-12T01:42:21;13.10;;;7.57;;
5682;SDS011;2864;49.220;8.654;2023-09-12T01:44:49;12.67;;;7.83;;
5682;SDS011;2864;49.220;8.654;2023-09-12T01:47:19;15.80;;;8.97;;
5682;SDS011;2864;49.220;8.654;2023-09-12T01:49:49;24.13;;;8.13;;
5682;SDS011;2864;49.220;8.654;2023-09-12T01:52:16;15.87;;;7.93;;
5682;SDS011;2864;49.220;8.654;2023-09-12T01:54:43;17.43;;;7.80;;
5682;SDS011;2864;49.220;8.654;2023-09-12T01:57:09;14.40;;;8.17;;
5682;SDS011;2864;49.220;8.654;2023-09-12T01:59:36;13.80;;;7.70;;
5682;SDS011;2864;49.220;8.654;2023-09-12T02:02:01;14.43;;;7.73;;
5682;SDS011;2864;49.220;8.654;2023-09-12T02:04:27;16.60;;;8.20;;
5682;SDS011;2864;49.220;8.654;2023-09-12T02:06:53;16.97;;;7.70;;
5682;SDS011;2864;49.220;8.654;2023-09-12T02:09:18;19.00;;;8.40;;
5682;SDS011;2864;49.220;8.654;2023-09-12T02:11:44;12.73;;;8.17;;
5682;SDS011;2864;49.220;8.654;2023-09-12T02:14:10;12.77;;;7.90;;
5682;SDS011;2864;49.220;8.654;2023-09-12T02:16:38;15.30;;;8.50;;
5682;SDS011;2864;49.220;8.654;2023-09-12T02:19:04;15.97;;;8.33;;
5682;SDS011;2864;49.220;8.654;2023-09-12T02:21:30;14.87;;;8.23;;
5682;SDS011;2864;49.220;8.654;2023-09-12T02:23:56;18.17;;;9.03;;
5682;SDS011;2864;49.220;8.654;2023-09-12T02:26:21;16.60;;;8.47;;
5682;SDS011;2864;49.220;8.654;2023-09-12T02:28:47;14.67;;;8.37;;
5682;SDS011;2864;49.220;8.654;2023-09-12T02:31:12;13.70;;;8.87;;
5682;SDS011;2864;49.220;8.654;2023-09-12T02:33:38;14.77;;;8.07;;
5682;SDS011;2864;49.220;8.654;2023-09-12T02:36:04;11.60;;;7.93;;
5682;SDS011;2864;49.220;8.654;2023-09-12T02:38:30;12.93;;;8.30;;
5682;SDS011;2864;49.220;8.654;2023-09-12T02:40:57;17.17;;;8.80;;
5682;SDS011;2864;49.220;8.654;2023-09-12T02:43:23;12.40;;;8.80;;
5682;SDS011;2864;49.220;8.654;2023-09-12T02:45:48;13.57;;;8.67;;
5682;SDS011;2864;49.220;8.654;2023-09-12T02:48:14;12.50;;;8.10;;
5682;SDS011;2864;49.220;8.654;2023-09-12T02:50:39;14.20;;;7.90;;
5682;SDS011;2864;49.220;8.654;2023-09-12T02:53:05;16.57;;;8.20;;
5682;SDS011;2864;49.220;8.654;2023-09-12T02:55:31;12.57;;;8.27;;
5682;SDS011;2864;49.220;8.654;2023-09-12T02:57:57;14.67;;;8.23;;
5682;SDS011;2864;49.220;8.654;2023-09-12T03:00:23;15.40;;;8.07;;
5682;SDS011;2864;49.220;8.654;2023-09-12T03:02:48;12.23;;;8.03;;
5682;SDS011;2864;49.220;8.654;2023-09-12T03:05:14;14.67;;;8.30;;
5682;SDS011;2864;49.220;8.654;2023-09-12T03:07:39;16.47;;;8.83;;
5682;SDS011;2864;49.220;8.654;2023-09-12T03:10:05;14.43;;;8.20;;
5682;SDS011;2864;49.220;8.654;2023-09-12T03:12:31;16.30;;;8.33;;
5682;SDS011;2864;49.220;8.654;2023-09-12T03:14:57;12.83;;;8.00;;
5682;SDS011;2864;49.220;8.654;2023-09-12T03:17:22;17.70;;;8.23;;
5682;SDS011;2864;49.220;8.654;2023-09-12T03:19:48;14.27;;;8.87;;
5682;SDS011;2864;49.220;8.654;2023-09-12T03:22:13;15.70;;;8.97;;
5682;SDS011;2864;49.220;8.654;2023-09-12T03:24:40;13.27;;;8.27;;
5682;SDS011;2864;49.220;8.654;2023-09-12T03:27:05;12.07;;;8.23;;
5682;SDS011;2864;49.220;8.654;2023-09-12T03:29:31;15.63;;;7.70;;
5682;SDS011;2864;49.220;8.654;2023-09-12T03:31:57;11.13;;;7.83;;
5682;SDS011;2864;49.220;8.654;2023-09-12T03:34:22;19.77;;;9.03;;
5682;SDS011;2864;49.220;8.654;2023-09-12T03:36:48;13.77;;;8.00;;
5682;SDS011;2864;49.220;8.654;2023-09-12T03:39:13;14.80;;;8.17;;
5682;SDS011;2864;49.220;8.654;2023-09-12T03:41:39;17.00;;;7.83;;
5682;SDS011;2864;49.220;8.654;2023-09-12T03:44:05;13.80;;;8.13;;
5682;SDS011;2864;49.220;8.654;2023-09-12T03:46:31;14.10;;;7.73;;
5682;SDS011;2864;49.220;8.654;2023-09-12T03:48:57;16.87;;;8.10;;
5682;SDS011;2864;49.220;8.654;2023-09-12T03:51:22;15.10;;;8.10;;
5682;SDS011;2864;49.220;8.654;2023-09-12T03:53:48;13.97;;;8.23;;
5682;SDS011;2864;49.220;8.654;2023-09-12T03:56:15;15.83;;;8.10;;
5682;SDS011;2864;49.220;8.654;2023-09-12T03:58:41;16.73;;;8.23;;
5682;SDS011;2864;49.220;8.654;2023-09-12T04:01:06;13.13;;;8.60;;
5682;SDS011;2864;49.220;8.654;2023-09-12T04:03:32;15.80;;;8.40;;
5682;SDS011;2864;49.220;8.654;2023-09-12T04:05:58;15.80;;;8.80;;
5682;SDS011;2864;49.220;8.654;2023-09-12T04:08:23;13.97;;;8.17;;
5682;SDS011;2864;49.220;8.654;2023-09-12T04:10:49;12.67;;;8.43;;
5682;SDS011;2864;49.220;8.654;2023-09-12T04:13:14;13.60;;;8.00;;
5682;SDS011;2864;49.220;8.654;2023-09-12T04:15:40;11.27;;;7.83;;
5682;SDS011;2864;49.220;8.654;2023-09-12T04:18:05;16.17;;;8.83;;
5682;SDS011;2864;49.220;8.654;2023-09-12T04:20:31;14.87;;;8.67;;
5682;SDS011;2864;49.220;8.654;2023-09-12T04:22:57;15.60;;;8.73;;
5682;SDS011;2864;49.220;8.654;2023-09-12T04:25:25;16.27;;;8.50;;
5682;SDS011;2864;49.220;8.654;2023-09-12T04:27:50;14.53;;;8.20;;
5682;SDS011;2864;49.220;8.654;2023-09-12T04:30:16;19.13;;;10.37;;
5682;SDS011;2864;49.220;8.654;2023-09-12T04:32:42;23.20;;;11.53;;
5682;SDS011;2864;49.220;8.654;2023-09-12T04:35:07;22.77;;;12.93;;
5682;SDS011;2864;49.220;8.654;2023-09-12T04:37:33;29.90;;;14.33;;
5682;SDS011;2864;49.220;8.654;2023-09-12T04:39:59;30.87;;;14.40;;
5682;SDS011;2864;49.220;8.654;2023-09-12T04:42:24;25.93;;;13.23;;
5682;SDS011;2864;49.220;8.654;2023-09-12T04:44:50;25.37;;;12.23;;
5682;SDS011;2864;49.220;8.654;2023-09-12T04:47:15;20.80;;;10.37;;
5682;SDS011;2864;49.220;8.654;2023-09-12T04:49:41;15.47;;;9.60;;
5682;SDS011;2864;49.220;8.654;2023-09-12T04:52:08;14.77;;;8.67;;
5682;SDS011;2864;49.220;8.654;2023-09-12T04:54:34;14.50;;;8.77;;
5682;SDS011;2864;49.220;8.654;2023-09-12T04:56:59;14.83;;;8.43;;
5682;SDS011;2864;49.220;8.654;2023-09-12T04:59:25;18.07;;;8.60;;
5682;SDS011;2864;49.220;8.654;2023-09-12T05:01:50;18.60;;;7.80;;
5682;SDS011;2864;49.220;8.654;2023-09-12T05:04:16;14.33;;;7.70;;
5682;SDS011;2864;49.220;8.654;2023-09-12T05:06:41;21.60;;;9.07;;
5682;SDS011;2864;49.220;8.654;2023-09-12T05:09:07;14.30;;;8.73;;
5682;SDS011;2864;49.220;8.654;2023-09-12T05:11:34;20.53;;;10.17;;
5682;SDS011;2864;49.220;8.654;2023-09-12T05:14:00;23.70;;;11.33;;
5682;SDS011;2864;49.220;8.654;2023-09-12T05:16:28;22.40;;;9.63;;
5682;SDS011;2864;49.220;8.654;2023-09-12T05:18:54;17.97;;;8.90;;
5682;SDS011;2864;49.220;8.654;2023-09-12T05:21:20;19.00;;;9.53;;
5682;SDS011;2864;49.220;8.654;2023-09-12T05:23:45;18.97;;;9.57;;
5682;SDS011;2864;49.220;8.654;2023-09-12T05:26:11;15.97;;;8.63;;
5682;SDS011;2864;49.220;8.654;2023-09-12T05:28:36;14.90;;;9.30;;
5682;SDS011;2864;49.220;8.654;2023-09-12T05:31:02;14.13;;;8.57;;
5682;SDS011;2864;49.220;8.654;2023-09-12T05:33:27;12.90;;;8.47;;
5682;SDS011;2864;49.220;8.654;2023-09-12T05:35:53;14.57;;;8.53;;
5682;SDS011;2864;49.220;8.654;2023-09-12T05:38:19;14.33;;;7.70;;
5682;SDS011;2864;49.220;8.654;2023-09-12T05:40:44;16.90;;;8.23;;
5682;SDS011;2864;49.220;8.654;2023-09-12T05:43:10;16.67;;;8.23;;
5682;SDS011;2864;49.220;8.654;2023-09-12T05:45:35;15.27;;;7.93;;
5682;SDS011;2864;49.220;8.654;2023-09-12T05:48:01;12.87;;;7.80;;
5682;SDS011;2864;49.220;8.654;2023-09-12T05:50:28;11.87;;;7.00;;
5682;SDS011;2864;49.220;8.654;2023-09-12T05:52:53;12.87;;;7.80;;
5682;SDS011;2864;49.220;8.654;2023-09-12T05:55:19;18.77;;;7.27;;
5682;SDS011;2864;49.220;8.654;2023-09-12T05:57:44;12.47;;;7.57;;
5682;SDS011;2864;49.220;8.654;2023-09-12T06:00:12;16.80;;;7.70;;
5682;SDS011;2864;49.220;8.654;2023-09-12T06:02:40;15.90;;;8.33;;
5682;SDS011;2864;49.220;8.654;2023-09-12T06:05:07;13.57;;;7.50;;
5682;SDS011;2864;49.220;8.654;2023-09-12T06:07:33;12.67;;;7.20;;
5682;SDS011;2864;49.220;8.654;2023-09-12T06:09:59;14.37;;;8.33;;
5682;SDS011;2864;49.220;8.654;2023-09-12T06:12:24;13.90;;;7.67;;
5682;SDS011;2864;49.220;8.654;2023-09-12T06:14:50;12.73;;;8.00;;
5682;SDS011;2864;49.220;8.654;2023-09-12T06:17:18;15.97;;;7.90;;
5682;SDS011;2864;49.220;8.654;2023-09-12T06:19:43;13.57;;;7.63;;
5682;SDS011;2864;49.220;8.654;2023-09-12T06:22:09;12.90;;;7.50;;
5682;SDS011;2864;49.220;8.654;2023-09-12T06:24:34;14.87;;;8.30;;
5682;SDS011;2864;49.220;8.654;2023-09-12T06:27:01;14.40;;;7.73;;
5682;SDS011;2864;49.220;8.654;2023-09-12T06:29:27;14.33;;;7.77;;
5682;SDS011;2864;49.220;8.654;2023-09-12T06:31:52;13.47;;;8.13;;
5682;SDS011;2864;49.220;8.654;2023-09-12T06:34:19;15.57;;;7.77;;
5682;SDS011;2864;49.220;8.654;2023-09-12T06:36:45;12.50;;;7.37;;
5682;SDS011;2864;49.220;8.654;2023-09-12T06:39:10;13.00;;;7.27;;
5682;SDS011;2864;49.220;8.654;2023-09-12T06:41:36;11.83;;;7.03;;
5682;SDS011;2864;49.220;8.654;2023-09-12T06:44:01;14.07;;;7.83;;
5682;SDS011;2864;49.220;8.654;2023-09-12T06:46:29;15.20;;;7.83;;
5682;SDS011;2864;49.220;8.654;2023-09-12T06:48:54;15.20;;;7.90;;
5682;SDS011;2864;49.220;8.654;2023-09-12T06:51:23;11.77;;;7.50;;
5682;SDS011;2864;49.220;8.654;2023-09-12T06:53:50;18.30;;;7.40;;
5682;SDS011;2864;49.220;8.654;2023-09-12T06:56:18;16.97;;;7.60;;
5682;SDS011;2864;49.220;8.654;2023-09-12T06:58:44;12.50;;;7.00;;
5682;SDS011;2864;49.220;8.654;2023-09-12T07:01:09;14.73;;;7.20;;
5682;SDS011;2864;49.220;8.654;2023-09-12T07:03:35;13.73;;;7.20;;
5682;SDS011;2864;49.220;8.654;2023-09-12T07:06:01;11.17;;;6.60;;
5682;SDS011;2864;49.220;8.654;2023-09-12T07:08:30;17.67;;;7.23;;
5682;SDS011;2864;49.220;8.654;2023-09-12T07:10:56;10.70;;;6.87;;
5682;SDS011;2864;49.220;8.654;2023-09-12T07:13:23;15.60;;;7.50;;
5682;SDS011;2864;49.220;8.654;2023-09-12T07:15:51;20.53;;;7.80;;
5682;SDS011;2864;49.220;8.654;2023-09-12T07:18:17;15.07;;;7.10;;
5682;SDS011;2864;49.220;8.654;2023-09-12T07:20:44;14.03;;;7.70;;
5682;SDS011;2864;49.220;8.654;2023-09-12T07:23:10;12.47;;;7.97;;
5682;SDS011;2864;49.220;8.654;2023-09-12T07:25:37;15.53;;;7.27;;
5682;SDS011;2864;49.220;8.654;2023-09-12T07:28:04;13.07;;;7.87;;
5682;SDS011;2864;49.220;8.654;2023-09-12T07:30:30;11.77;;;7.77;;
5682;SDS011;2864;49.220;8.654;2023-09-12T07:32:55;14.90;;;7.63;;
5682;SDS011;2864;49.220;8.654;2023-09-12T07:35:21;18.27;;;8.07;;
5682;SDS011;2864;49.220;8.654;2023-09-12T07:37:49;11.77;;;7.60;;
5682;SDS011;2864;49.220;8.654;2023-09-12T07:40:14;13.00;;;8.07;;
5682;SDS011;2864;49.220;8.654;2023-09-12T07:42:40;14.30;;;9.10;;
5682;SDS011;2864;49.220;8.654;2023-09-12T07:45:06;13.90;;;7.87;;
5682;SDS011;2864;49.220;8.654;2023-09-12T07:47:32;17.93;;;8.93;;
5682;SDS011;2864;49.220;8.654;2023-09-12T07:49:58;17.63;;;8.03;;
5682;SDS011;2864;49.220;8.654;2023-09-12T07:52:25;12.27;;;8.23;;
5682;SDS011;2864;49.220;8.654;2023-09-12T07:54:51;11.53;;;8.07;;
5682;SDS011;2864;49.220;8.654;2023-09-12T07:57:22;17.93;;;8.90;;
5682;SDS011;2864;49.220;8.654;2023-09-12T07:59:48;15.83;;;8.53;;
5682;SDS011;2864;49.220;8.654;2023-09-12T08:02:13;15.37;;;7.87;;
5682;SDS011;2864;49.220;8.654;2023-09-12T08:04:39;16.57;;;8.53;;
5682;SDS011;2864;49.220;8.654;2023-09-12T08:07:04;15.80;;;8.57;;
5682;SDS011;2864;49.220;8.654;2023-09-12T08:12:19;16.73;;;10.10;;
5682;SDS011;2864;49.220;8.654;2023-09-12T08:14:46;12.63;;;8.03;;
5682;SDS011;2864;49.220;8.654;2023-09-12T08:17:12;12.50;;;8.33;;
5682;SDS011;2864;49.220;8.654;2023-09-12T08:19:38;12.70;;;8.93;;
5682;SDS011;2864;49.220;8.654;2023-09-12T08:22:04;13.50;;;8.40;;
5682;SDS011;2864;49.220;8.654;2023-09-12T08:24:30;11.37;;;8.60;;
5682;SDS011;2864;49.220;8.654;2023-09-12T08:26:56;17.03;;;8.77;;
5682;SDS011;2864;49.220;8.654;2023-09-12T08:29:21;13.40;;;8.73;;
5682;SDS011;2864;49.220;8.654;2023-09-12T08:31:47;12.98;;;8.35;;
5682;SDS011;2864;49.220;8.654;2023-09-12T08:34:13;11.70;;;8.83;;
5682;SDS011;2864;49.220;8.654;2023-09-12T08:36:39;14.10;;;8.57;;
5682;SDS011;2864;49.220;8.654;2023-09-12T08:39:04;15.75;;;8.77;;
5682;SDS011;2864;49.220;8.654;2023-09-12T08:41:33;18.75;;;8.63;;
5682;SDS011;2864;49.220;8.654;2023-09-12T08:43:59;16.30;;;8.57;;
5682;SDS011;2864;49.220;8.654;2023-09-12T08:46:26;12.23;;;8.90;;
5682;SDS011;2864;49.220;8.654;2023-09-12T08:48:53;17.33;;;8.15;;
5682;SDS011;2864;49.220;8.654;2023-09-12T08:51:22;13.63;;;8.13;;
5682;SDS011;2864;49.220;8.654;2023-09-12T08:53:49;10.75;;;8.13;;
5682;SDS011;2864;49.220;8.654;2023-09-12T08:56:15;12.27;;;8.10;;
5682;SDS011;2864;49.220;8.654;2023-09-12T08:58:41;13.75;;;8.30;;
5682;SDS011;2864;49.220;8.654;2023-09-12T09:01:08;12.40;;;8.43;;
5682;SDS011;2864;49.220;8.654;2023-09-12T09:03:37;14.32;;;9.15;;
5682;SDS011;2864;49.220;8.654;2023-09-12T09:06:05;12.32;;;8.20;;
5682;SDS011;2864;49.220;8.654;2023-09-12T09:08:32;15.70;;;8.30;;
5682;SDS011;2864;49.220;8.654;2023-09-12T09:10:59;11.00;;;8.20;;
5682;SDS011;2864;49.220;8.654;2023-09-12T09:13:30;11.65;;;7.70;;
5682;SDS011;2864;49.220;8.654;2023-09-12T09:16:09;15.55;;;8.70;;
5682;SDS011;2864;49.220;8.654;2023-09-12T09:18:52;11.45;;;7.63;;
5682;SDS011;2864;49.220;8.654;2023-09-12T09:21:41;10.15;;;7.80;;
5682;SDS011;2864;49.220;8.654;2023-09-12T09:24:07;11.65;;;8.02;;
5682;SDS011;2864;49.220;8.654;2023-09-12T09:29:10;13.85;;;8.57;;
5682;SDS011;2864;49.220;8.654;2023-09-12T09:31:42;11.15;;;7.60;;
5682;SDS011;2864;49.220;8.654;2023-09-12T09:34:12;10.77;;;8.02;;
5682;SDS011;2864;49.220;8.654;2023-09-12T09:36:42;13.75;;;8.27;;
5682;SDS011;2864;49.220;8.654;2023-09-12T09:39:09;12.68;;;8.10;;
5682;SDS011;2864;49.220;8.654;2023-09-12T09:41:36;10.95;;;7.88;;
5682;SDS011;2864;49.220;8.654;2023-09-12T09:44:03;12.18;;;7.90;;
5682;SDS011;2864;49.220;8.654;2023-09-12T09:46:33;9.70;;;7.85;;
5682;SDS011;2864;49.220;8.654;2023-09-12T09:48:59;13.80;;;8.32;;
5682;SDS011;2864;49.220;8.654;2023-09-12T09:51:26;11.32;;;7.85;;
5682;SDS011;2864;49.220;8.654;2023-09-12T09:53:52;10.73;;;8.38;;
5682;SDS011;2864;49.220;8.654;2023-09-12T09:56:18;11.80;;;7.47;;
5682;SDS011;2864;49.220;8.654;2023-09-12T09:58:50;11.27;;;7.70;;
5682;SDS011;2864;49.220;8.654;2023-09-12T10:01:21;11.60;;;7.53;;
5682;SDS011;2864;49.220;8.654;2023-09-12T10:03:51;11.50;;;7.57;;
5682;SDS011;2864;49.220;8.654;2023-09-12T10:06:19;8.90;;;7.07;;
5682;SDS011;2864;49.220;8.654;2023-09-12T10:08:45;10.38;;;7.30;;
5682;SDS011;2864;49.220;8.654;2023-09-12T10:11:15;12.00;;;7.22;;
5682;SDS011;2864;49.220;8.654;2023-09-12T10:13:47;8.35;;;7.43;;
5682;SDS011;2864;49.220;8.654;2023-09-12T10:16:17;9.80;;;6.68;;
5682;SDS011;2864;49.220;8.654;2023-09-12T10:21:45;9.05;;;7.30;;
5682;SDS011;2864;49.220;8.654;2023-09-12T10:24:21;7.97;;;6.22;;
5682;SDS011;2864;49.220;8.654;2023-09-12T10:26:48;6.90;;;5.88;;
5682;SDS011;2864;49.220;8.654;2023-09-12T10:29:15;12.25;;;6.25;;
5682;SDS011;2864;49.220;8.654;2023-09-12T10:31:41;11.07;;;6.80;;
5682;SDS011;2864;49.220;8.654;2023-09-12T10:34:07;9.27;;;6.43;;
5682;SDS011;2864;49.220;8.654;2023-09-12T10:36:41;11.02;;;6.60;;
5682;SDS011;2864;49.220;8.654;2023-09-12T10:39:08;9.90;;;6.90;;
5682;SDS011;2864;49.220;8.654;2023-09-12T10:41:36;11.27;;;7.18;;
5682;SDS011;2864;49.220;8.654;2023-09-12T10:44:09;13.15;;;7.00;;
5682;SDS011;2864;49.220;8.654;2023-09-12T10:46:37;8.70;;;7.22;;
5682;SDS011;2864;49.220;8.654;2023-09-12T10:49:10;9.48;;;7.65;;
5682;SDS011;2864;49.220;8.654;2023-09-12T10:51:38;9.25;;;7.28;;
5682;SDS011;2864;49.220;8.654;2023-09-12T10:54:12;12.43;;;7.82;;
5682;SDS011;2864;49.220;8.654;2023-09-12T10:56:39;9.60;;;7.13;;
5682;SDS011;2864;49.220;8.654;2023-09-12T11:01:40;13.95;;;7.57;;
5682;SDS011;2864;49.220;8.654;2023-09-12T11:06:43;8.40;;;7.07;;
5682;SDS011;2864;49.220;8.654;2023-09-12T11:09:17;16.00;;;7.20;;
5682;SDS011;2864;49.220;8.654;2023-09-12T11:11:47;9.85;;;7.00;;
5682;SDS011;2864;49.220;8.654;2023-09-12T11:14:14;11.50;;;7.05;;
5682;SDS011;2864;49.220;8.654;2023-09-12T11:16:41;11.98;;;7.05;;
5682;SDS011;2864;49.220;8.654;2023-09-12T11:19:15;10.60;;;6.82;;
5682;SDS011;2864;49.220;8.654;2023-09-12T11:21:54;11.27;;;7.07;;
5682;SDS011;2864;49.220;8.654;2023-09-12T11:24:21;7.70;;;6.45;;
5682;SDS011;2864;49.220;8.654;2023-09-12T11:29:35;9.00;;;6.38;;
5682;SDS011;2864;49.220;8.654;2023-09-12T11:32:02;7.88;;;6.30;;
5682;SDS011;2864;49.220;8.654;2023-09-12T11:34:29;8.05;;;7.10;;
5682;SDS011;2864;49.220;8.654;2023-09-12T11:37:02;7.97;;;6.72;;
5682;SDS011;2864;49.220;8.654;2023-09-12T11:39:30;9.10;;;6.50;;
5682;SDS011;2864;49.220;8.654;2023-09-12T11:41:58;11.43;;;7.10;;
5682;SDS011;2864;49.220;8.654;2023-09-12T11:44:25;14.20;;;6.95;;
5682;SDS011;2864;49.220;8.654;2023-09-12T11:46:52;8.32;;;6.82;;
5682;SDS011;2864;49.220;8.654;2023-09-12T11:49:18;8.80;;;5.95;;
5682;SDS011;2864;49.220;8.654;2023-09-12T11:51:48;10.77;;;6.88;;
5682;SDS011;2864;49.220;8.654;2023-09-12T11:54:18;11.25;;;6.90;;
5682;SDS011;2864;49.220;8.654;2023-09-12T11:56:48;7.70;;;6.00;;
5682;SDS011;2864;49.220;8.654;2023-09-12T11:59:14;7.43;;;6.30;;
5682;SDS011;2864;49.220;8.654;2023-09-12T12:01:43;10.55;;;6.43;;
5682;SDS011;2864;49.220;8.654;2023-09-12T12:04:10;15.75;;;6.90;;
5682;SDS011;2864;49.220;8.654;2023-09-12T12:06:36;8.13;;;6.05;;
5682;SDS011;2864;49.220;8.654;2023-09-12T12:09:01;7.88;;;6.20;;
5682;SDS011;2864;49.220;8.654;2023-09-12T12:11:28;10.13;;;6.85;;
5682;SDS011;2864;49.220;8.654;2023-09-12T12:13:54;10.27;;;5.75;;
5682;SDS011;2864;49.220;8.654;2023-09-12T12:16:19;8.88;;;6.22;;
5682;SDS011;2864;49.220;8.654;2023-09-12T12:18:45;10.25;;;5.63;;
5682;SDS011;2864;49.220;8.654;2023-09-12T12:21:10;8.45;;;5.90;;
5682;SDS011;2864;49.220;8.654;2023-09-12T12:23:36;7.47;;;5.32;;
5682;SDS011;2864;49.220;8.654;2023-09-12T12:26:05;11.00;;;5.63;;
5682;SDS011;2864;49.220;8.654;2023-09-12T12:28:34;11.02;;;6.10;;
5682;SDS011;2864;49.220;8.654;2023-09-12T12:31:00;7.78;;;5.75;;
5682;SDS011;2864;49.220;8.654;2023-09-12T12:33:26;8.93;;;5.47;;
5682;SDS011;2864;49.220;8.654;2023-09-12T12:36:02;9.60;;;5.47;;
5682;SDS011;2864;49.220;8.654;2023-09-12T12:38:33;8.18;;;5.70;;
5682;SDS011;2864;49.220;8.654;2023-09-12T12:41:00;11.48;;;5.57;;
5682;SDS011;2864;49.220;8.654;2023-09-12T12:43:25;9.25;;;5.88;;
5682;SDS011;2864;49.220;8.654;2023-09-12T12:45:55;11.48;;;5.65;;
5682;SDS011;2864;49.220;8.654;2023-09-12T12:48:35;8.85;;;5.70;;
5682;SDS011;2864;49.220;8.654;2023-09-12T12:51:13;10.40;;;5.45;;
5682;SDS011;2864;49.220;8.654;2023-09-12T12:53:42;10.07;;;5.38;;
5682;SDS011;2864;49.220;8.654;2023-09-12T12:56:11;6.43;;;5.38;;
5682;SDS011;2864;49.220;8.654;2023-09-12T12:58:45;10.00;;;5.60;;
5682;SDS011;2864;49.220;8.654;2023-09-12T13:01:11;9.90;;;5.70;;
5682;SDS011;2864;49.220;8.654;2023-09-12T13:03:37;8.40;;;5.28;;
5682;SDS011;2864;49.220;8.654;2023-09-12T13:06:03;7.15;;;5.25;;
5682;SDS011;2864;49.220;8.654;2023-09-12T13:08:28;8.25;;;5.47;;
5682;SDS011;2864;49.220;8.654;2023-09-12T13:10:54;12.88;;;5.80;;
5682;SDS011;2864;49.220;8.654;2023-09-12T13:13:20;15.82;;;5.57;;
5682;SDS011;2864;49.220;8.654;2023-09-12T13:15:45;13.23;;;5.82;;
5682;SDS011;2864;49.220;8.654;2023-09-12T13:18:11;9.18;;;5.57;;
5682;SDS011;2864;49.220;8.654;2023-09-12T13:20:37;8.70;;;5.60;;
5682;SDS011;2864;49.220;8.654;2023-09-12T13:23:02;7.93;;;5.13;;
5682;SDS011;2864;49.220;8.654;2023-09-12T13:25:28;7.85;;;5.55;;
5682;SDS011;2864;49.220;8.654;2023-09-12T13:27:53;8.40;;;5.07;;
5682;SDS011;2864;49.220;8.654;2023-09-12T13:30:19;7.57;;;5.20;;
5682;SDS011;2864;49.220;8.654;2023-09-12T13:32:44;8.18;;;5.30;;
5682;SDS011;2864;49.220;8.654;2023-09-12T13:35:11;9.70;;;5.78;;
5682;SDS011;2864;49.220;8.654;2023-09-12T13:37:36;12.18;;;5.45;;
5682;SDS011;2864;49.220;8.654;2023-09-12T13:40:02;7.07;;;5.07;;
5682;SDS011;2864;49.220;8.654;2023-09-12T13:42:28;9.50;;;5.47;;
5682;SDS011;2864;49.220;8.654;2023-09-12T13:44:56;7.82;;;5.22;;
5682;SDS011;2864;49.220;8.654;2023-09-12T13:47:21;6.13;;;5.00;;
5682;SDS011;2864;49.220;8.654;2023-09-12T13:49:50;6.22;;;4.60;;
5682;SDS011;2864;49.220;8.654;2023-09-12T13:52:22;7.15;;;4.82;;
5682;SDS011;2864;49.220;8.654;2023-09-12T13:54:47;5.95;;;4.82;;
5682;SDS011;2864;49.220;8.654;2023-09-12T13:57:13;6.80;;;4.70;;
5682;SDS011;2864;49.220;8.654;2023-09-12T13:59:40;8.95;;;4.80;;
5682;SDS011;2864;49.220;8.654;2023-09-12T14:02:05;6.22;;;5.07;;
5682;SDS011;2864;49.220;8.654;2023-09-12T14:04:31;8.00;;;5.57;;
5682;SDS011;2864;49.220;8.654;2023-09-12T14:06:57;9.68;;;5.10;;
5682;SDS011;2864;49.220;8.654;2023-09-12T14:09:22;6.15;;;5.07;;
5682;SDS011;2864;49.220;8.654;2023-09-12T14:11:48;9.00;;;5.38;;
5682;SDS011;2864;49.220;8.654;2023-09-12T14:14:13;5.90;;;5.05;;
5682;SDS011;2864;49.220;8.654;2023-09-12T14:16:39;12.68;;;5.57;;
5682;SDS011;2864;49.220;8.654;2023-09-12T14:19:04;7.82;;;5.03;;
5682;SDS011;2864;49.220;8.654;2023-09-12T14:21:30;9.90;;;5.28;;
5682;SDS011;2864;49.220;8.654;2023-09-12T14:23:56;6.53;;;5.50;;
5682;SDS011;2864;49.220;8.654;2023-09-12T14:26:22;7.80;;;5.22;;
5682;SDS011;2864;49.220;8.654;2023-09-12T14:28:47;11.43;;;5.45;;
5682;SDS011;2864;49.220;8.654;2023-09-12T14:31:13;6.75;;;5.15;;
5682;SDS011;2864;49.220;8.654;2023-09-12T14:33:42;6.95;;;5.55;;
5682;SDS011;2864;49.220;8.654;2023-09-12T14:36:08;9.45;;;5.30;;
5682;SDS011;2864;49.220;8.654;2023-09-12T14:38:34;9.23;;;5.05;;
5682;SDS011;2864;49.220;8.654;2023-09-12T14:41:00;7.53;;;5.28;;
5682;SDS011;2864;49.220;8.654;2023-09-12T14:43:26;10.07;;;5.35;;
5682;SDS011;2864;49.220;8.654;2023-09-12T14:45:53;7.80;;;5.90;;
5682;SDS011;2864;49.220;8.654;2023-09-12T14:48:19;9.65;;;5.20;;
5682;SDS011;2864;49.220;8.654;2023-09-12T14:50:45;6.25;;;4.88;;
5682;SDS011;2864;49.220;8.654;2023-09-12T14:53:14;7.60;;;5.40;;
5682;SDS011;2864;49.220;8.654;2023-09-12T14:55:40;7.25;;;5.07;;
5682;SDS011;2864;49.220;8.654;2023-09-12T14:58:06;8.07;;;5.38;;
5682;SDS011;2864;49.220;8.654;2023-09-12T15:00:32;7.25;;;4.82;;
5682;SDS011;2864;49.220;8.654;2023-09-12T15:02:58;7.55;;;4.90;;
5682;SDS011;2864;49.220;8.654;2023-09-12T15:05:25;7.20;;;5.07;;
5682;SDS011;2864;49.220;8.654;2023-09-12T15:07:50;6.30;;;5.18;;
5682;SDS011;2864;49.220;8.654;2023-09-12T15:10:17;8.35;;;5.40;;
5682;SDS011;2864;49.220;8.654;2023-09-12T15:12:43;7.95;;;5.05;;
5682;SDS011;2864;49.220;8.654;2023-09-12T15:15:08;7.68;;;4.97;;
5682;SDS011;2864;49.220;8.654;2023-09-12T15:17:34;9.07;;;5.13;;
5682;SDS011;2864;49.220;8.654;2023-09-12T15:20:00;10.60;;;5.50;;
5682;SDS011;2864;49.220;8.654;2023-09-12T15:22:25;7.45;;;5.25;;
5682;SDS011;2864;49.220;8.654;2023-09-12T15:24:51;7.13;;;5.22;;